Time;durP1;ratioP1;P1;durP2;ratioP2;P2;SDS_P1;SDS_P2;PMS_P1;PMS_P2;Temp;Humidity;BMP_temperature;BMP_pressure;BME280_temperature;BME280_humidity;BME280_pressure;Samples;Min_cycle;Max_cycle;Signal;HPM_P1;HPM_P2
2022/10/01 00:02:06;;;;;;;1.10;0.60;;;15.60;99.90;;;;;;5076811;28;20233;-78
2022/10/01 00:04:35;;;;;;;2.37;0.80;;;15.60;99.90;;;;;;5086851;28;20289;-79
2022/10/01 00:07:03;;;;;;;2.63;0.90;;;15.80;99.90;;;;;;5060370;28;20224;-78
2022/10/01 00:09:32;;;;;;;3.53;0.93;;;15.80;99.90;;;;;;5074222;28;20204;-79
2022/10/01 00:11:59;;;;;;;3.10;0.73;;;15.80;99.90;;;;;;5064791;28;20295;-79
2022/10/01 00:14:27;;;;;;;3.67;0.80;;;15.80;99.90;;;;;;5085842;28;20631;-80
2022/10/01 00:16:54;;;;;;;2.10;0.80;;;15.90;99.90;;;;;;5065952;28;20575;-80
2022/10/01 00:19:21;;;;;;;2.93;0.70;;;15.90;99.90;;;;;;5052600;28;20208;-79
2022/10/01 00:21:48;;;;;;;3.00;0.90;;;16.10;99.90;;;;;;5069256;28;20203;-79
2022/10/01 00:24:15;;;;;;;3.60;0.87;;;16.00;99.90;;;;;;5071806;28;20250;-80
2022/10/01 00:26:44;;;;;;;3.10;0.80;;;16.10;99.90;;;;;;5081579;28;20244;-79
2022/10/01 00:29:13;;;;;;;1.57;0.70;;;16.10;99.90;;;;;;5075514;28;20260;-79
2022/10/01 00:31:41;;;;;;;2.17;0.90;;;16.00;99.90;;;;;;5083055;28;20281;-79
2022/10/01 00:34:08;;;;;;;2.93;0.90;;;16.10;99.90;;;;;;5078586;28;20206;-79
2022/10/01 00:36:35;;;;;;;1.70;0.90;;;16.10;99.90;;;;;;5072723;28;20634;-79
2022/10/01 00:39:02;;;;;;;2.83;0.80;;;16.20;99.90;;;;;;5078862;28;20229;-79
2022/10/01 00:41:30;;;;;;;1.60;0.67;;;16.30;99.90;;;;;;5092815;28;20608;-79
2022/10/01 00:44:00;;;;;;;2.20;0.70;;;16.40;99.90;;;;;;5073695;28;20219;-79
2022/10/01 00:46:33;;;;;;;2.47;0.80;;;16.30;99.90;;;;;;5075244;28;20275;-79
2022/10/01 00:49:03;;;;;;;1.30;0.67;;;16.40;99.90;;;;;;5088446;28;20242;-79
2022/10/01 00:51:35;;;;;;;4.70;0.70;;;16.30;99.90;;;;;;5081261;28;20285;-79
2022/10/01 00:54:08;;;;;;;1.93;0.50;;;16.30;99.90;;;;;;5089391;28;20710;-79
2022/10/01 00:56:36;;;;;;;2.50;0.80;;;16.40;99.90;;;;;;5065724;28;20286;-79
2022/10/01 00:59:05;;;;;;;3.30;0.60;;;16.40;99.90;;;;;;5073161;28;20221;-79
2022/10/01 01:01:33;;;;;;;0.80;0.60;;;16.40;99.90;;;;;;5069828;28;20712;-79
2022/10/01 01:04:01;;;;;;;2.53;0.70;;;16.50;99.90;;;;;;5052874;28;20246;-79
2022/10/01 01:06:28;;;;;;;2.20;0.70;;;16.40;99.90;;;;;;5052713;28;20730;-79
2022/10/01 01:08:56;;;;;;;1.63;0.63;;;16.40;99.90;;;;;;5052481;28;20306;-79
2022/10/01 01:11:32;;;;;;;1.77;0.47;;;16.50;99.90;;;;;;5052543;28;20660;-79
2022/10/01 01:14:10;;;;;;;2.20;0.70;;;16.40;99.90;;;;;;5052750;28;20242;-79
2022/10/01 01:16:44;;;;;;;2.20;0.60;;;16.40;99.90;;;;;;5052419;28;20644;-79
2022/10/01 01:19:28;;;;;;;3.03;0.60;;;16.50;99.90;;;;;;5090720;28;20661;-79
2022/10/01 01:22:00;;;;;;;1.17;0.60;;;16.40;99.90;;;;;;5082884;28;20705;-79
2022/10/01 01:24:40;;;;;;;1.87;0.60;;;16.60;99.90;;;;;;5092502;28;20227;-79
2022/10/01 01:27:26;;;;;;;1.97;0.70;;;16.40;99.90;;;;;;5053621;28;20611;-79
2022/10/01 01:30:02;;;;;;;2.57;0.60;;;16.50;99.90;;;;;;5069937;28;20290;-79
2022/10/01 01:32:32;;;;;;;1.60;0.40;;;16.50;99.90;;;;;;5082441;28;20198;-79
2022/10/01 01:35:03;;;;;;;1.73;0.50;;;16.50;99.90;;;;;;5072728;28;20222;-79
2022/10/01 01:37:35;;;;;;;1.20;0.53;;;16.60;99.90;;;;;;5067669;28;20263;-79
2022/10/01 01:40:05;;;;;;;1.53;0.63;;;16.50;99.90;;;;;;5052494;28;20200;-79
2022/10/01 01:42:35;;;;;;;0.93;0.47;;;16.50;99.90;;;;;;5091049;28;20232;-79
2022/10/01 01:45:08;;;;;;;0.80;0.50;;;16.50;99.90;;;;;;5094094;28;20229;-79
2022/10/01 01:47:37;;;;;;;1.97;0.60;;;16.60;99.90;;;;;;5091327;28;20224;-79
2022/10/01 01:50:07;;;;;;;1.10;0.63;;;16.70;99.90;;;;;;5089668;28;20274;-80
2022/10/01 01:52:34;;;;;;;0.67;0.50;;;16.70;99.90;;;;;;5083923;28;20203;-79
2022/10/01 01:55:04;;;;;;;2.53;0.50;;;16.60;99.90;;;;;;5076238;28;20287;-79
2022/10/01 01:57:32;;;;;;;2.73;0.60;;;16.60;99.90;;;;;;5075813;28;20209;-80
2022/10/01 01:59:59;;;;;;;1.87;0.50;;;16.80;99.90;;;;;;5075481;28;20248;-79
2022/10/01 02:02:31;;;;;;;1.23;0.53;;;16.70;99.90;;;;;;5075728;28;20203;-79
2022/10/01 02:05:02;;;;;;;1.57;0.50;;;16.70;99.90;;;;;;5093860;28;20701;-79
2022/10/01 02:07:54;;;;;;;1.97;0.67;;;16.70;99.90;;;;;;5095710;27;20589;-80
2022/10/01 02:10:32;;;;;;;1.07;0.60;;;16.80;99.90;;;;;;5096303;28;20325;-79
2022/10/01 02:13:14;;;;;;;1.33;0.50;;;16.80;99.90;;;;;;5094639;28;20284;-79
2022/10/01 02:15:50;;;;;;;1.37;0.37;;;17.00;99.90;;;;;;5074964;28;20277;-79
2022/10/01 02:18:27;;;;;;;0.97;0.40;;;16.80;99.90;;;;;;5079123;28;20280;-79
2022/10/01 02:20:59;;;;;;;1.70;0.47;;;16.90;99.90;;;;;;5081651;28;20216;-79
2022/10/01 02:23:30;;;;;;;1.27;0.40;;;16.80;99.90;;;;;;5094203;28;20854;-80
2022/10/01 02:26:01;;;;;;;0.60;0.40;;;16.80;99.90;;;;;;5095678;28;20282;-79
2022/10/01 02:28:32;;;;;;;1.37;0.40;;;17.00;99.90;;;;;;5095370;28;20201;-80
2022/10/01 02:31:02;;;;;;;1.33;0.30;;;17.00;99.90;;;;;;5080288;28;20212;-80
2022/10/01 02:33:34;;;;;;;0.37;0.33;;;17.00;99.90;;;;;;5083522;28;20219;-79
2022/10/01 02:36:05;;;;;;;0.93;0.40;;;16.70;99.90;;;;;;5085538;28;20286;-80
2022/10/01 02:38:34;;;;;;;1.83;0.40;;;16.90;99.90;;;;;;5075809;28;20759;-80
2022/10/01 02:41:03;;;;;;;1.10;0.30;;;17.00;99.90;;;;;;5075200;28;20290;-79
2022/10/01 02:43:34;;;;;;;0.53;0.30;;;16.80;99.90;;;;;;5078222;28;20245;-80
2022/10/01 02:46:05;;;;;;;1.40;0.20;;;16.90;99.90;;;;;;5091565;28;20238;-80
2022/10/01 02:48:34;;;;;;;1.20;0.37;;;16.80;99.90;;;;;;5090899;28;20281;-80
2022/10/01 02:51:10;;;;;;;0.70;0.30;;;16.90;99.90;;;;;;5095336;28;20280;-81
2022/10/01 02:53:42;;;;;;;0.47;0.30;;;16.90;99.90;;;;;;5092677;28;20222;-80
2022/10/01 02:56:10;;;;;;;0.97;0.30;;;17.00;99.90;;;;;;5086480;28;20198;-80
2022/10/01 02:58:36;;;;;;;0.87;0.30;;;16.90;99.90;;;;;;5093886;28;20293;-80
2022/10/01 03:01:03;;;;;;;0.20;0.10;;;16.80;99.90;;;;;;5077674;28;20269;-80
2022/10/01 03:03:31;;;;;;;1.50;0.10;;;16.90;99.90;;;;;;5074759;28;20218;-80
2022/10/01 03:05:59;;;;;;;0.40;0.13;;;16.90;99.90;;;;;;5082671;28;20194;-79
2022/10/01 03:08:26;;;;;;;0.63;0.10;;;17.00;99.90;;;;;;5095205;28;20254;-80
2022/10/01 03:10:53;;;;;;;0.40;0.10;;;17.00;99.90;;;;;;5085071;28;20311;-79
2022/10/01 03:13:24;;;;;;;0.33;0.10;;;16.90;99.90;;;;;;5085095;28;20226;-79
2022/10/01 03:15:51;;;;;;;0.50;0.10;;;17.00;99.90;;;;;;5077310;28;20202;-79
2022/10/01 03:18:17;;;;;;;0.10;0.10;;;17.00;99.90;;;;;;5094404;28;20253;-79
2022/10/01 03:20:45;;;;;;;0.43;0.17;;;17.20;99.90;;;;;;5085648;28;20237;-79
2022/10/01 03:23:13;;;;;;;0.27;0.10;;;;;;;;;;5076767;28;20207;-79
2022/10/01 03:25:40;;;;;;;0.50;0.10;;;16.70;99.90;;;;;;5093265;28;20285;-79
2022/10/01 03:28:07;;;;;;;0.10;0.10;;;17.00;99.90;;;;;;5094618;28;20293;-79
2022/10/01 03:30:34;;;;;;;0.20;0.10;;;17.00;99.90;;;;;;5091488;28;20226;-79
2022/10/01 03:33:01;;;;;;;0.20;0.10;;;16.80;99.90;;;;;;5094956;28;20609;-79
2022/10/01 03:35:28;;;;;;;0.10;0.10;;;16.90;99.90;;;;;;5094229;28;20244;-78
2022/10/01 03:37:55;;;;;;;1.23;0.20;;;16.80;99.90;;;;;;5094679;28;20289;-79
2022/10/01 03:40:24;;;;;;;0.50;0.30;;;16.80;99.90;;;;;;5089058;28;20290;-79
2022/10/01 03:42:52;;;;;;;1.93;0.40;;;16.80;99.90;;;;;;5074292;28;20242;-79
2022/10/01 03:45:19;;;;;;;1.20;0.67;;;16.80;99.90;;;;;;5073975;28;20226;-79
2022/10/01 03:47:52;;;;;;;1.83;0.63;;;16.80;99.90;;;;;;5080895;28;20225;-79
2022/10/01 03:50:20;;;;;;;2.70;1.00;;;16.90;99.90;;;;;;5091606;28;20290;-79
2022/10/01 03:52:49;;;;;;;1.13;0.73;;;16.90;99.90;;;;;;5073151;28;20633;-80
2022/10/01 03:55:16;;;;;;;1.63;0.60;;;16.90;99.90;;;;;;5073926;28;20282;-80
2022/10/01 03:57:44;;;;;;;1.00;0.50;;;16.90;99.90;;;;;;5073403;28;20674;-80
2022/10/01 04:00:12;;;;;;;0.97;0.50;;;16.70;99.90;;;;;;5074002;28;20282;-80
2022/10/01 04:02:39;;;;;;;4.53;0.57;;;16.70;99.90;;;;;;5073534;28;20235;-80
2022/10/01 04:05:07;;;;;;;3.23;0.83;;;16.80;99.90;;;;;;5072724;28;20258;-81
2022/10/01 04:07:34;;;;;;;1.37;0.60;;;16.80;99.90;;;;;;5072982;28;20215;-81
2022/10/01 04:10:01;;;;;;;1.10;0.60;;;16.90;99.90;;;;;;5071692;28;20222;-81
2022/10/01 04:12:28;;;;;;;1.90;0.70;;;16.60;99.90;;;;;;5090488;28;20305;-81
2022/10/01 04:14:56;;;;;;;1.53;1.03;;;16.60;99.90;;;;;;5093033;28;20229;-81
2022/10/01 04:17:23;;;;;;;2.13;1.00;;;16.60;99.90;;;;;;5093401;28;20257;-80
2022/10/01 04:19:50;;;;;;;1.87;0.90;;;16.40;99.90;;;;;;5091946;28;20685;-80
2022/10/01 04:22:17;;;;;;;3.30;1.00;;;16.50;99.90;;;;;;5053294;28;20636;-80
2022/10/01 04:24:44;;;;;;;2.43;1.03;;;16.60;99.90;;;;;;5052694;28;20259;-81
2022/10/01 04:27:11;;;;;;;1.83;1.37;;;16.70;99.90;;;;;;5052812;28;20632;-80
2022/10/01 04:29:37;;;;;;;4.93;1.20;;;16.30;99.90;;;;;;5053194;28;20731;-81
2022/10/01 04:32:06;;;;;;;2.30;0.93;;;16.40;99.90;;;;;;5053281;28;20235;-81
2022/10/01 04:37:14;;;;;;;1.97;0.80;;;16.70;99.90;;;;;;5092767;28;20225;-80
2022/10/01 04:39:41;;;;;;;2.57;1.00;;;;;;;;;;5093006;28;20233;-81
2022/10/01 04:42:09;;;;;;;3.43;0.97;;;;;;;;;;5084231;28;20233;-80
2022/10/01 04:44:38;;;;;;;3.40;1.37;;;;;;;;;;5072789;28;20258;-81
2022/10/01 04:47:07;;;;;;;3.07;1.00;;;;;;;;;;5072092;28;20278;-80
2022/10/01 04:49:34;;;;;;;3.37;1.40;;;16.20;99.90;;;;;;5073076;28;20280;-81
2022/10/01 04:52:02;;;;;;;3.77;1.30;;;;;;;;;;5056281;28;20207;-80
2022/10/01 04:54:30;;;;;;;2.67;1.30;;;;;;;;;;5057362;28;20278;-80
2022/10/01 04:56:57;;;;;;;4.13;1.50;;;;;;;;;;5093062;28;20285;-81
2022/10/01 04:59:26;;;;;;;4.10;1.50;;;16.10;99.90;;;;;;5092829;28;20237;-81
2022/10/01 05:01:54;;;;;;;6.20;1.30;;;;;;;;;;5092864;28;20213;-80
2022/10/01 05:04:23;;;;;;;4.23;1.80;;;;;;;;;;5077149;28;20242;-80
2022/10/01 05:06:51;;;;;;;4.83;1.50;;;;;;;;;;5073783;28;20244;-80
2022/10/01 05:09:19;;;;;;;5.07;1.60;;;;;;;;;;5081222;28;20989;-81
2022/10/01 05:11:50;;;;;;;2.60;1.40;;;;;;;;;;5079470;28;20693;-80
2022/10/01 05:14:19;;;;;;;4.33;1.40;;;;;;;;;;5092835;28;20206;-81
2022/10/01 05:16:46;;;;;;;5.13;1.50;;;;;;;;;;5083532;28;20198;-80
2022/10/01 05:19:14;;;;;;;4.83;1.27;;;;;;;;;;5092491;28;20232;-81
2022/10/01 05:21:43;;;;;;;4.93;1.23;;;;;;;;;;5074692;28;20199;-80
2022/10/01 05:24:10;;;;;;;3.90;1.30;;;;;;;;;;5071703;28;20273;-81
2022/10/01 05:26:38;;;;;;;3.97;1.40;;;;;;;;;;5081582;28;20202;-81
2022/10/01 05:29:06;;;;;;;4.90;1.30;;;;;;;;;;5072579;28;20290;-80
2022/10/01 05:31:35;;;;;;;5.83;1.30;;;;;;;;;;5072109;28;20293;-81
2022/10/01 05:34:02;;;;;;;4.50;1.37;;;;;;;;;;5072473;28;20228;-81
2022/10/01 05:36:30;;;;;;;2.37;1.30;;;;;;;;;;5072147;28;20203;-81
2022/10/01 05:39:01;;;;;;;3.70;1.30;;;16.10;99.90;;;;;;5071886;28;20333;-81
2022/10/01 05:41:28;;;;;;;4.17;1.50;;;16.50;99.90;;;;;;5072248;28;20730;-81
2022/10/01 05:43:55;;;;;;;2.87;1.30;;;16.20;99.90;;;;;;5071862;28;20737;-81
2022/10/01 05:46:22;;;;;;;4.67;1.20;;;16.30;99.90;;;;;;5077530;28;20783;-80
2022/10/01 05:48:50;;;;;;;2.87;1.07;;;16.30;99.90;;;;;;5092474;28;20237;-81
2022/10/01 05:51:17;;;;;;;3.10;1.10;;;16.70;99.90;;;;;;5074024;28;20336;-81
2022/10/01 05:53:47;;;;;;;2.30;1.00;;;16.60;99.90;;;;;;5072457;28;20254;-81
2022/10/01 05:56:15;;;;;;;1.83;0.93;;;16.70;99.90;;;;;;5071605;28;20191;-81
2022/10/01 05:58:42;;;;;;;1.10;0.90;;;16.50;99.90;;;;;;5081057;28;20226;-80
2022/10/01 06:01:09;;;;;;;1.43;1.10;;;16.80;99.90;;;;;;5091816;28;20735;-81
2022/10/01 06:03:37;;;;;;;2.27;1.00;;;16.50;99.90;;;;;;5073712;28;20253;-81
2022/10/01 06:06:04;;;;;;;2.30;1.20;;;16.50;99.90;;;;;;5071755;28;20230;-80
2022/10/01 06:08:31;;;;;;;2.60;0.90;;;16.70;99.90;;;;;;5085721;28;20268;-81
2022/10/01 06:11:02;;;;;;;3.90;1.00;;;16.50;99.90;;;;;;5071605;28;20321;-81
2022/10/01 06:13:35;;;;;;;2.30;1.00;;;16.60;99.90;;;;;;5072200;28;20245;-81
2022/10/01 06:16:02;;;;;;;2.77;0.97;;;16.60;99.90;;;;;;5072001;28;20278;-81
2022/10/01 06:18:29;;;;;;;2.40;0.90;;;17.00;99.90;;;;;;5071806;28;20231;-81
2022/10/01 06:20:58;;;;;;;2.33;1.00;;;16.70;99.90;;;;;;5071580;28;20203;-81
2022/10/01 06:23:25;;;;;;;2.43;1.03;;;16.80;99.90;;;;;;5072128;28;20209;-81
2022/10/01 06:25:53;;;;;;;1.57;0.70;;;16.90;99.90;;;;;;5072091;28;20313;-81
2022/10/01 06:28:20;;;;;;;4.53;0.90;;;16.80;99.90;;;;;;5071459;28;20579;-80
2022/10/01 06:30:48;;;;;;;2.73;1.00;;;16.90;99.90;;;;;;5082882;28;20260;-80
2022/10/01 06:33:17;;;;;;;4.60;1.03;;;16.70;99.90;;;;;;5095277;28;20245;-81
2022/10/01 06:35:45;;;;;;;2.63;1.20;;;16.70;99.90;;;;;;5086673;28;20283;-80
2022/10/01 06:38:12;;;;;;;1.77;0.90;;;16.80;99.90;;;;;;5075413;28;20207;-80
2022/10/01 06:40:40;;;;;;;3.30;1.40;;;16.90;99.90;;;;;;5073859;28;20729;-81
2022/10/01 06:43:08;;;;;;;1.70;1.30;;;17.00;99.90;;;;;;5070404;28;20243;-81
2022/10/01 06:45:38;;;;;;;3.40;1.20;;;17.00;99.90;;;;;;5067642;28;20298;-81
2022/10/01 06:48:06;;;;;;;1.93;1.30;;;17.00;99.90;;;;;;5089075;28;20286;-80
2022/10/01 06:50:34;;;;;;;2.63;1.37;;;17.20;99.90;;;;;;5075643;28;20242;-79
2022/10/01 06:53:03;;;;;;;2.73;1.30;;;17.10;99.90;;;;;;5079498;28;20229;-79
2022/10/01 06:55:32;;;;;;;2.40;1.13;;;17.30;99.90;;;;;;5068858;28;20230;-80
2022/10/01 06:58:00;;;;;;;2.20;1.10;;;17.10;99.90;;;;;;5059044;28;20239;-79
2022/10/01 07:00:29;;;;;;;2.53;1.20;;;17.10;99.90;;;;;;5082300;28;20225;-79
2022/10/01 07:02:56;;;;;;;1.53;1.00;;;17.30;99.90;;;;;;5067034;28;20243;-80
2022/10/01 07:05:25;;;;;;;2.95;1.20;;;17.40;99.90;;;;;;5057417;28;20228;-80
2022/10/01 07:07:53;;;;;;;2.50;1.10;;;17.10;99.90;;;;;;5077532;28;20242;-80
2022/10/01 07:10:22;;;;;;;2.30;0.73;;;17.30;99.90;;;;;;5074637;28;20231;-80
2022/10/01 07:12:49;;;;;;;2.90;0.90;;;17.60;99.90;;;;;;5075726;28;20237;-80
2022/10/01 07:15:18;;;;;;;2.95;1.00;;;17.60;99.90;;;;;;5075237;28;20283;-80
2022/10/01 07:17:47;;;;;;;2.03;0.97;;;17.60;99.90;;;;;;5073152;28;20231;-80
2022/10/01 07:20:16;;;;;;;2.25;1.10;;;17.40;99.90;;;;;;5053543;28;20742;-80
2022/10/01 07:22:45;;;;;;;1.90;1.07;;;17.70;99.90;;;;;;5077524;28;20205;-80
2022/10/01 07:25:12;;;;;;;1.90;1.02;;;17.60;99.90;;;;;;5053664;28;20651;-80
2022/10/01 07:27:40;;;;;;;3.57;1.17;;;17.80;99.90;;;;;;5058505;28;20480;-80
2022/10/01 07:30:08;;;;;;;2.40;1.17;;;17.60;99.90;;;;;;5069981;28;20230;-80
2022/10/01 07:32:35;;;;;;;4.82;1.45;;;17.60;99.90;;;;;;5066603;28;20245;-80
2022/10/01 07:35:02;;;;;;;2.80;1.25;;;17.70;99.90;;;;;;5089494;28;20209;-80
2022/10/01 07:37:29;;;;;;;2.42;1.25;;;17.80;99.90;;;;;;5078840;28;20257;-80
2022/10/01 07:39:57;;;;;;;2.45;1.10;;;17.70;99.90;;;;;;5074886;28;20226;-80
2022/10/01 07:42:26;;;;;;;2.10;1.08;;;17.50;99.90;;;;;;5081867;28;20237;-80
2022/10/01 07:44:54;;;;;;;2.97;1.13;;;17.60;99.90;;;;;;5074862;28;20217;-80
2022/10/01 07:47:21;;;;;;;3.83;1.05;;;17.50;99.90;;;;;;5075457;28;20208;-81
2022/10/01 07:49:48;;;;;;;2.58;1.08;;;;;;;;;;5067517;28;20234;-81
2022/10/01 07:52:16;;;;;;;1.75;1.10;;;;;;;;;;5075616;28;20235;-80
2022/10/01 07:54:43;;;;;;;1.75;0.70;;;17.50;99.90;;;;;;5079177;28;20283;-80
2022/10/01 07:57:13;;;;;;;1.70;0.70;;;;;;;;;;5073478;28;20709;-80
2022/10/01 07:59:40;;;;;;;2.40;0.95;;;17.60;99.90;;;;;;5073501;28;20203;-81
2022/10/01 08:02:13;;;;;;;1.90;0.80;;;18.30;99.90;;;;;;5073891;28;20203;-81
2022/10/01 08:07:28;;;;;;;1.48;0.70;;;21.10;99.90;;;;;;5068394;28;20304;-82
2022/10/01 08:09:57;;;;;;;1.75;0.63;;;;;;;;;;5078205;28;20227;-81
2022/10/01 08:12:29;;;;;;;1.42;0.70;;;;;;;;;;5082241;28;20245;-88
2022/10/01 08:14:56;;;;;;;2.17;0.70;;;;;;;;;;5077809;28;20201;-88
2022/10/01 08:17:23;;;;;;;1.23;0.60;;;;;;;;;;5076644;28;20287;-87
2022/10/01 08:19:51;;;;;;;2.30;0.65;;;;;;;;;;5088239;28;21014;-87
2022/10/01 08:22:19;;;;;;;1.95;0.70;;;;;;;;;;5073873;28;20234;-86
2022/10/01 08:24:48;;;;;;;1.60;0.77;;;;;;;;;;5072360;28;20253;-86
2022/10/01 08:27:16;;;;;;;1.40;0.73;;;;;;;;;;5083485;28;20254;-86
2022/10/01 08:29:45;;;;;;;1.70;1.00;;;;;;;;;;5080943;28;20230;-87
2022/10/01 08:32:13;;;;;;;2.67;0.70;;;20.40;99.90;;;;;;5092772;28;20720;-86
2022/10/01 08:34:40;;;;;;;1.67;0.88;;;;;;;;;;5076329;28;20195;-86
2022/10/01 08:37:08;;;;;;;2.38;0.77;;;;;;;;;;5083533;28;20282;-87
2022/10/01 08:39:35;;;;;;;2.92;1.13;;;19.80;99.90;;;;;;5072807;28;20223;-87
2022/10/01 08:42:07;;;;;;;2.65;1.08;;;20.20;99.90;;;;;;5076424;28;20199;-81
2022/10/01 08:44:40;;;;;;;2.75;0.85;;;20.60;99.90;;;;;;5078741;28;20230;-86
2022/10/01 08:47:14;;;;;;;2.28;0.80;;;20.90;99.90;;;;;;5071994;28;20229;-85
2022/10/01 08:49:45;;;;;;;2.33;0.90;;;21.10;99.90;;;;;;5078079;28;20194;-90
2022/10/01 08:52:21;;;;;;;2.42;0.88;;;20.70;99.90;;;;;;5080043;28;20203;-83
2022/10/01 08:54:54;;;;;;;2.15;0.80;;;20.20;99.90;;;;;;5076339;28;20245;-89
2022/10/01 08:57:24;;;;;;;2.17;0.90;;;20.00;99.90;;;;;;5076353;28;20279;-85
2022/10/01 08:59:54;;;;;;;3.15;0.90;;;19.70;99.90;;;;;;5073584;28;20657;-85
2022/10/01 09:02:25;;;;;;;4.70;1.38;;;19.50;99.90;;;;;;5071222;28;20203;-84
2022/10/01 09:04:54;;;;;;;5.20;1.17;;;19.60;99.90;;;;;;5076314;28;20644;-84
2022/10/01 09:07:49;;;;;;;3.05;0.90;;;19.70;99.90;;;;;;5076182;28;20261;-84
2022/10/01 09:10:27;;;;;;;3.45;1.17;;;19.70;99.90;;;;;;5079825;28;20210;-84
2022/10/01 09:13:17;;;;;;;3.92;1.10;;;20.10;99.90;;;;;;5066767;28;20282;-84
2022/10/01 09:15:52;;;;;;;3.88;1.13;;;21.10;99.90;;;;;;5075447;28;20195;-84
2022/10/01 09:18:29;;;;;;;4.90;1.35;;;22.40;99.90;;;;;;5070555;28;20310;-84
2022/10/01 09:20:58;;;;;;;4.68;1.30;;;23.10;99.90;;;;;;5071090;28;20218;-85
2022/10/01 09:23:29;;;;;;;4.47;1.40;;;23.50;99.90;;;;;;5078494;28;20271;-84
2022/10/01 09:25:58;;;;;;;4.20;1.35;;;23.50;99.90;;;;;;5084898;28;20215;-85
2022/10/01 09:28:28;;;;;;;6.40;1.40;;;23.70;99.90;;;;;;5074477;28;20257;-85
2022/10/01 09:30:59;;;;;;;4.47;1.50;;;23.80;99.90;;;;;;5079276;28;20290;-85
2022/10/01 09:33:30;;;;;;;7.00;1.75;;;23.80;99.90;;;;;;5074241;28;20307;-84
2022/10/01 09:36:05;;;;;;;7.35;1.58;;;23.40;99.90;;;;;;5071487;28;20226;-84
2022/10/01 09:38:38;;;;;;;5.88;1.35;;;23.10;99.90;;;;;;5077363;28;20237;-83
2022/10/01 09:41:07;;;;;;;5.15;1.70;;;23.00;99.90;;;;;;5081876;28;20256;-85
2022/10/01 09:43:37;;;;;;;4.25;1.58;;;23.60;99.90;;;;;;5080901;28;20286;-86
2022/10/01 09:46:12;;;;;;;5.35;1.50;;;23.30;99.90;;;;;;5077919;28;20306;-85
2022/10/01 09:48:45;;;;;;;5.75;1.50;;;21.80;99.90;;;;;;5082475;28;20552;-85
2022/10/01 09:51:16;;;;;;;4.43;1.50;;;23.60;99.90;;;;;;5068871;28;20208;-84
2022/10/01 09:53:48;;;;;;;5.60;1.60;;;23.30;99.90;;;;;;5066877;28;20626;-85
2022/10/01 09:56:23;;;;;;;9.00;1.60;;;23.60;99.90;;;;;;5076919;28;20284;-85
2022/10/01 09:58:55;;;;;;;6.93;1.42;;;24.30;99.90;;;;;;5074535;28;20202;-86
2022/10/01 10:01:28;;;;;;;4.28;1.35;;;26.20;99.90;;;;;;5072900;28;20289;-86
2022/10/01 10:03:57;;;;;;;6.15;1.70;;;28.20;99.90;;;;;;5074549;28;20957;-87
2022/10/01 10:06:28;;;;;;;5.85;1.40;;;26.70;99.90;;;;;;5082663;28;20262;-86
2022/10/01 10:08:56;;;;;;;4.95;1.50;;;27.50;99.90;;;;;;5079292;28;20269;-86
2022/10/01 10:11:26;;;;;;;4.78;1.40;;;26.40;99.90;;;;;;5074844;28;20230;-86
2022/10/01 10:13:58;;;;;;;4.18;1.40;;;26.40;99.90;;;;;;5073988;28;20690;-87
2022/10/01 10:16:28;;;;;;;3.55;1.55;;;25.10;99.90;;;;;;5067665;28;20211;-87
2022/10/01 10:19:01;;;;;;;5.60;1.42;;;24.10;99.90;;;;;;5072442;28;20226;-87
2022/10/01 10:21:30;;;;;;;2.65;1.17;;;24.20;99.90;;;;;;5072165;28;20670;-85
2022/10/01 10:23:58;;;;;;;4.28;1.35;;;23.90;99.90;;;;;;5075932;28;20235;-84
2022/10/01 10:26:30;;;;;;;3.60;1.23;;;24.50;99.90;;;;;;5092213;28;20788;-84
2022/10/01 10:28:58;;;;;;;2.30;1.02;;;24.60;99.90;;;;;;5080982;28;20202;-84
2022/10/01 10:31:28;;;;;;;3.60;0.98;;;24.30;99.90;;;;;;5079477;28;20221;-87
2022/10/01 10:34:05;;;;;;;4.50;1.33;;;23.60;99.90;;;;;;5055582;28;20246;-80
2022/10/01 10:36:35;;;;;;;4.10;1.17;;;23.00;99.90;;;;;;5070381;28;20203;-84
2022/10/01 10:39:04;;;;;;;3.28;1.02;;;22.70;99.90;;;;;;5090750;28;20286;-83
2022/10/01 10:41:32;;;;;;;2.40;1.13;;;23.60;99.90;;;;;;5075633;28;20576;-82
2022/10/01 10:44:02;;;;;;;5.25;1.23;;;24.90;99.90;;;;;;5074683;28;20227;-84
2022/10/01 10:46:32;;;;;;;4.15;1.10;;;26.10;99.90;;;;;;5075442;28;20578;-80
2022/10/01 10:49:06;;;;;;;2.75;0.95;;;26.90;99.90;;;;;;5075274;28;20235;-80
2022/10/01 10:51:52;;;;;;;5.70;1.20;;;27.30;99.90;;;;;;5090208;28;20234;-79
2022/10/01 10:54:22;;;;;;;2.50;0.95;;;26.90;99.90;;;;;;5078606;28;20680;-80
2022/10/01 10:56:55;;;;;;;2.33;1.10;;;26.20;99.90;;;;;;5080671;28;20191;-80
2022/10/01 10:59:22;;;;;;;3.30;1.30;;;26.30;99.90;;;;;;5085153;28;20677;-81
2022/10/01 11:01:49;;;;;;;3.67;1.38;;;26.40;99.90;;;;;;5092311;28;20281;-80
2022/10/01 11:04:37;;;;;;;3.22;1.30;;;26.10;99.90;;;;;;5085367;28;20202;-78
2022/10/01 11:07:05;;;;;;;3.13;1.38;;;25.90;99.90;;;;;;5075367;28;20768;-79
2022/10/01 11:09:43;;;;;;;3.78;1.30;;;25.60;99.90;;;;;;5080172;28;20289;-79
2022/10/01 11:12:23;;;;;;;4.57;1.27;;;24.80;99.90;;;;;;5085864;28;20321;-80
2022/10/01 11:15:08;;;;;;;3.88;1.30;;;24.60;99.90;;;;;;5074783;28;20274;-80
2022/10/01 11:18:08;;;;;;;4.10;1.20;;;23.90;99.90;;;;;;5090208;28;20190;-79
2022/10/01 11:20:50;;;;;;;2.83;1.20;;;24.10;99.90;;;;;;5064512;28;20248;-81
2022/10/01 11:23:40;;;;;;;4.78;1.27;;;23.70;99.90;;;;;;5077453;28;20195;-81
2022/10/01 11:26:19;;;;;;;3.40;1.13;;;22.60;99.90;;;;;;5074537;28;20230;-81
2022/10/01 11:28:56;;;;;;;3.65;1.10;;;23.20;99.90;;;;;;5087418;28;20229;-81
2022/10/01 11:31:31;;;;;;;2.80;0.98;;;23.00;99.90;;;;;;5070268;28;20293;-81
2022/10/01 11:34:14;;;;;;;2.92;1.15;;;24.60;99.90;;;;;;5073939;28;20674;-82
2022/10/01 11:36:50;;;;;;;2.97;0.95;;;25.70;99.90;;;;;;5079619;28;20223;-81
2022/10/01 11:39:23;;;;;;;3.70;1.35;;;26.80;99.90;;;;;;5076554;28;20285;-81
2022/10/01 11:41:54;;;;;;;3.83;1.45;;;27.60;99.90;;;;;;5078396;28;20226;-81
2022/10/01 11:44:27;;;;;;;5.82;1.23;;;27.30;99.90;;;;;;5076645;28;20237;-82
2022/10/01 11:46:59;;;;;;;5.20;1.20;;;27.30;99.90;;;;;;5079248;28;20330;-82
2022/10/01 11:49:41;;;;;;;3.60;1.30;;;27.30;99.90;;;;;;5081058;28;20230;-81
2022/10/01 11:52:16;;;;;;;2.88;0.98;;;26.40;99.90;;;;;;5072809;28;20198;-81
2022/10/01 11:58:49;;;;;;;3.85;1.40;;;24.90;99.90;;;;;;5082799;28;20258;-81
2022/10/01 12:00:39;;;;;;;3.63;1.27;;;24.50;99.90;;;;;;5068641;28;20210;-81
2022/10/01 12:03:15;;;;;;;6.05;1.48;;;25.40;99.90;;;;;;5075795;28;20291;-81
2022/10/01 12:05:43;;;;;;;3.20;1.10;;;25.50;99.90;;;;;;5090080;28;20210;-81
2022/10/01 12:08:18;;;;;;;4.55;1.48;;;26.20;99.90;;;;;;5064135;28;20321;-82
2022/10/01 12:10:54;;;;;;;3.70;1.30;;;27.00;99.90;;;;;;5074452;28;20285;-81
2022/10/01 12:13:26;;;;;;;3.03;1.10;;;27.10;99.90;;;;;;5070277;28;20241;-81
2022/10/01 12:15:57;;;;;;;6.00;1.33;;;27.30;99.90;;;;;;5073324;28;20253;-81
2022/10/01 12:18:30;;;;;;;4.35;1.35;;;27.50;99.90;;;;;;5072885;28;20746;-81
2022/10/01 12:21:00;;;;;;;8.85;1.55;;;26.60;99.90;;;;;;5072883;28;20238;-81
2022/10/01 12:23:33;;;;;;;5.60;1.27;;;26.70;99.90;;;;;;5071710;28;20253;-81
2022/10/01 12:26:09;;;;;;;4.43;1.50;;;26.90;99.90;;;;;;5072894;28;20249;-81
2022/10/01 12:28:44;;;;;;;5.28;1.42;;;26.40;99.90;;;;;;5072864;28;20409;-81
2022/10/01 12:31:16;;;;;;;4.60;1.30;;;26.40;99.90;;;;;;5073029;28;20241;-81
2022/10/01 12:34:01;;;;;;;5.30;1.40;;;26.40;99.90;;;;;;5072937;28;20282;-81
2022/10/01 12:36:38;;;;;;;4.75;1.80;;;25.60;99.90;;;;;;5072843;28;20245;-81
2022/10/01 12:39:28;;;;;;;5.28;1.80;;;24.60;99.90;;;;;;5078924;28;20638;-81
2022/10/01 12:42:05;;;;;;;5.97;1.92;;;23.90;99.90;;;;;;5093588;28;20206;-82
2022/10/01 12:44:44;;;;;;;5.88;1.90;;;24.00;99.90;;;;;;5093406;28;20205;-81
2022/10/01 12:47:27;;;;;;;5.38;1.45;;;24.90;99.90;;;;;;5093516;28;20224;-81
2022/10/01 12:50:03;;;;;;;12.30;2.22;;;25.40;99.90;;;;;;5093060;28;20571;-81
2022/10/01 12:52:40;;;;;;;11.73;2.30;;;26.20;99.90;;;;;;5092826;28;20206;-80
2022/10/01 12:55:47;;;;;;;7.65;2.00;;;26.30;99.90;;;;;;5093281;28;20229;-81
2022/10/01 12:58:20;;;;;;;5.35;1.58;;;26.30;99.90;;;;;;5093123;28;20681;-81
2022/10/01 13:00:58;;;;;;;5.63;1.50;;;25.80;99.90;;;;;;5073953;28;20226;-81
2022/10/01 13:03:50;;;;;;;6.82;1.70;;;25.90;99.90;;;;;;5069278;28;20195;-80
2022/10/01 13:06:27;;;;;;;6.95;1.73;;;25.20;99.90;;;;;;5052352;28;20294;-80
2022/10/01 13:09:11;;;;;;;5.30;1.63;;;24.10;99.90;;;;;;5052485;28;20270;-79
2022/10/01 13:11:54;;;;;;;6.75;1.75;;;24.00;99.90;;;;;;5070211;28;20257;-79
2022/10/01 13:14:22;;;;;;;6.72;1.50;;;23.20;99.90;;;;;;5081521;28;20229;-79
2022/10/01 13:16:57;;;;;;;5.68;1.83;;;22.90;99.90;;;;;;5053202;28;20235;-79
2022/10/01 13:19:30;;;;;;;3.65;1.65;;;23.40;99.90;;;;;;5071528;28;20693;-80
2022/10/01 13:22:06;;;;;;;8.70;2.20;;;24.20;99.90;;;;;;5071160;28;20226;-79
2022/10/01 13:24:40;;;;;;;5.85;1.77;;;24.40;99.90;;;;;;5071579;28;20202;-78
2022/10/01 13:27:17;;;;;;;4.38;1.80;;;25.20;99.90;;;;;;5088107;28;20305;-78